Lanesboro, Minnesota
Current Conditions -  °F | °C
As of 2:55 AM on Wednesday 26 Nov 2014 (Local Time) from KFKA Reporting Station
Overcast Overcast  
Wind Chill: 11°   Ceiling: 4600
Heat Index: 19°   Visibility: 10mi
Dew Point: 15°   Wind: 6mph
Humidity: 86%   Direction: 120°ESE
Pressure: 30.02"   Gusts: NA
Location:  43.72°N, 91.98°W
Report Text: KFKA 260855Z AUTO 12005KT 10SM BKN046 OVC060 M07/M09 A3002 RMK AO2 T10731093
Loading
Personal Weather Stations






























Interactive Weather Map New forecast layout! Learn more

10-Day Weather Forecast

Advertisements
Track Severe Weather on mobile